createdAt,value
2018-07-27T00:00:20.774Z,0.00
2018-07-27T00:01:20.751Z,0.00
2018-07-27T00:02:20.934Z,0.00
2018-07-27T00:03:20.920Z,0.00
2018-07-27T00:04:20.892Z,0.00
2018-07-27T00:05:20.674Z,0.00
2018-07-27T00:06:23.273Z,0.00
2018-07-27T00:07:20.834Z,0.00
2018-07-27T00:08:20.815Z,0.00
2018-07-27T00:09:20.796Z,0.00
2018-07-27T00:10:20.774Z,0.00
2018-07-27T00:11:20.557Z,0.00
2018-07-27T00:12:20.530Z,0.00
2018-07-27T00:13:20.509Z,0.00
2018-07-27T00:14:20.488Z,0.00
2018-07-27T00:15:20.471Z,0.00
2018-07-27T00:16:20.654Z,0.00
2018-07-27T00:17:20.429Z,0.00
2018-07-27T00:18:20.411Z,0.00
2018-07-27T00:19:20.393Z,0.00
2018-07-27T00:20:20.369Z,0.00
2018-07-27T00:21:20.352Z,0.00
2018-07-27T00:22:20.328Z,0.00
2018-07-27T00:23:20.308Z,0.00
2018-07-27T00:24:20.288Z,0.00
2018-07-27T00:25:20.265Z,0.00
2018-07-27T00:26:20.249Z,0.00
2018-07-27T00:27:20.230Z,0.00
2018-07-27T00:28:20.204Z,0.00
2018-07-27T00:29:20.186Z,0.00
2018-07-27T00:30:20.165Z,0.00
2018-07-27T00:31:20.144Z,0.00
2018-07-27T00:32:20.125Z,0.00
2018-07-27T00:33:20.102Z,0.00
2018-07-27T00:34:20.088Z,0.00
2018-07-27T00:35:20.064Z,0.00
2018-07-27T00:36:20.041Z,0.00
2018-07-27T00:37:20.031Z,0.00
2018-07-27T00:38:20.003Z,0.00
2018-07-27T00:39:19.980Z,0.00
2018-07-27T00:40:19.967Z,0.00
2018-07-27T00:41:19.943Z,0.00
2018-07-27T00:42:19.929Z,0.00
2018-07-27T00:43:19.900Z,0.00
2018-07-27T00:44:19.879Z,0.00
2018-07-27T00:45:19.858Z,0.00
2018-07-27T00:46:19.840Z,0.00
2018-07-27T00:47:19.817Z,0.00
2018-07-27T00:48:19.797Z,0.00
2018-07-27T00:49:19.778Z,0.00
2018-07-27T00:50:19.759Z,0.00
2018-07-27T00:51:19.739Z,0.00
2018-07-27T00:52:19.716Z,0.00
2018-07-27T00:53:19.694Z,0.00
2018-07-27T00:54:19.674Z,0.00
2018-07-27T00:55:19.652Z,0.00
2018-07-27T00:56:19.632Z,0.00
2018-07-27T00:57:19.614Z,0.00
2018-07-27T00:58:19.593Z,0.00
2018-07-27T00:59:19.573Z,0.00
2018-07-27T01:00:19.553Z,0.00
2018-07-27T01:01:19.528Z,0.00
2018-07-27T01:02:19.714Z,0.00
2018-07-27T01:03:19.699Z,0.00
2018-07-27T01:04:19.467Z,0.00
2018-07-27T01:05:19.651Z,0.00
2018-07-27T01:06:19.430Z,0.00
2018-07-27T01:07:19.412Z,0.00
2018-07-27T01:08:19.387Z,0.00
2018-07-27T01:09:19.367Z,0.00
2018-07-27T01:10:19.347Z,0.00
2018-07-27T01:11:19.329Z,0.00
2018-07-27T01:12:19.302Z,0.00
2018-07-27T01:13:19.483Z,0.00
2018-07-27T01:14:19.263Z,0.00
2018-07-27T01:15:19.238Z,0.00
2018-07-27T01:16:19.218Z,0.00
2018-07-27T01:17:19.201Z,0.00
2018-07-27T01:18:19.181Z,0.00
2018-07-27T01:19:19.157Z,0.00
2018-07-27T01:20:19.136Z,0.00
2018-07-27T01:21:19.114Z,0.00
2018-07-27T01:22:19.095Z,0.00
2018-07-27T01:23:19.072Z,0.00
2018-07-27T01:24:19.051Z,0.00
2018-07-27T01:25:19.030Z,0.00
2018-07-27T01:26:19.017Z,0.00
2018-07-27T01:27:19.192Z,0.00
2018-07-27T01:28:18.968Z,0.00
2018-07-27T01:29:18.949Z,0.00
2018-07-27T01:30:18.932Z,0.00
2018-07-27T01:31:18.907Z,0.00
2018-07-27T01:32:18.888Z,0.00
2018-07-27T01:33:18.865Z,0.00
2018-07-27T01:34:18.845Z,0.00
2018-07-27T01:35:18.830Z,0.00
2018-07-27T01:36:18.802Z,0.00
2018-07-27T01:37:18.784Z,0.00
2018-07-27T01:38:18.765Z,0.00
2018-07-27T01:39:18.751Z,0.00
2018-07-27T01:40:18.726Z,0.00
2018-07-27T01:41:18.705Z,0.00
2018-07-27T01:42:18.685Z,0.00
2018-07-27T01:43:18.663Z,0.00
2018-07-27T01:44:18.639Z,0.00
2018-07-27T01:45:18.615Z,0.00
2018-07-27T01:46:18.597Z,0.00
2018-07-27T01:47:18.773Z,0.00
2018-07-27T01:48:18.553Z,0.00
2018-07-27T01:49:18.532Z,0.00
2018-07-27T01:50:18.513Z,0.00
2018-07-27T01:51:18.531Z,0.00
2018-07-27T01:52:18.477Z,0.00
2018-07-27T01:53:18.449Z,0.00
2018-07-27T01:54:18.428Z,0.00
2018-07-27T01:55:18.411Z,0.00
2018-07-27T01:56:18.385Z,0.00
2018-07-27T01:57:18.364Z,0.00
2018-07-27T01:58:18.343Z,0.00
2018-07-27T01:59:18.323Z,0.00
2018-07-27T02:00:18.303Z,0.00
2018-07-27T02:01:18.283Z,0.00
2018-07-27T02:02:18.267Z,0.00
2018-07-27T02:03:18.240Z,0.00
2018-07-27T02:04:18.220Z,0.00
2018-07-27T02:05:18.399Z,0.00
2018-07-27T02:06:18.178Z,0.00
2018-07-27T02:07:18.153Z,0.00
2018-07-27T02:08:18.134Z,0.00
2018-07-27T02:09:18.115Z,0.00
2018-07-27T02:10:18.095Z,0.00
2018-07-27T02:11:18.080Z,0.00
2018-07-27T02:12:18.056Z,0.00
2018-07-27T02:13:18.034Z,0.00
2018-07-27T02:14:18.011Z,0.00
2018-07-27T02:15:17.988Z,0.00
2018-07-27T02:16:18.170Z,0.00
2018-07-27T02:17:17.945Z,0.00
2018-07-27T02:18:17.926Z,0.00
2018-07-27T02:19:17.903Z,0.00
2018-07-27T02:20:17.882Z,0.00
2018-07-27T02:21:17.863Z,0.00
2018-07-27T02:22:17.843Z,0.00
2018-07-27T02:23:18.024Z,0.00
2018-07-27T02:24:17.800Z,0.00
2018-07-27T02:25:17.780Z,0.00
2018-07-27T02:26:17.756Z,0.00
2018-07-27T02:27:17.734Z,0.00
2018-07-27T02:28:17.712Z,0.00
2018-07-27T02:29:17.700Z,0.00
2018-07-27T02:30:17.672Z,0.00
2018-07-27T02:31:17.650Z,0.00
2018-07-27T02:32:17.635Z,0.00
2018-07-27T02:33:17.609Z,0.00
2018-07-27T02:34:17.589Z,0.00
2018-07-27T02:35:17.568Z,4.00
2018-07-27T02:36:17.545Z,4.00
2018-07-27T02:37:17.523Z,4.00
2018-07-27T02:38:17.503Z,0.00
2018-07-27T02:39:17.481Z,0.00
2018-07-27T02:40:17.461Z,4.00
2018-07-27T02:41:17.447Z,4.00
2018-07-27T02:42:17.420Z,4.00
2018-07-27T02:43:17.398Z,4.00
2018-07-27T02:44:17.377Z,4.00
2018-07-27T02:45:17.359Z,4.00
2018-07-27T02:46:17.337Z,8.00
2018-07-27T02:47:17.316Z,4.00
2018-07-27T02:48:17.294Z,8.00
2018-07-27T02:49:17.269Z,8.00
2018-07-27T02:50:17.248Z,12.00
2018-07-27T02:51:17.232Z,12.00
2018-07-27T02:52:17.205Z,12.00
2018-07-27T02:53:17.190Z,12.00
2018-07-27T02:54:17.165Z,16.00
2018-07-27T02:55:17.143Z,20.00
2018-07-27T02:56:17.122Z,20.00
2018-07-27T02:57:17.103Z,24.00
2018-07-27T02:58:17.083Z,24.00
2018-07-27T02:59:17.057Z,32.00
2018-07-27T03:00:17.037Z,36.00
2018-07-27T03:01:17.019Z,36.00
2018-07-27T03:02:16.996Z,44.00
2018-07-27T03:03:17.176Z,52.00
2018-07-27T03:04:16.957Z,56.00
2018-07-27T03:05:16.930Z,64.00
2018-07-27T03:06:16.908Z,72.00
2018-07-27T03:07:16.885Z,80.00
2018-07-27T03:08:16.865Z,92.00
2018-07-27T03:09:16.857Z,104.00
2018-07-27T03:10:16.826Z,116.00
2018-07-27T03:11:16.804Z,132.00
2018-07-27T03:12:16.787Z,144.00
2018-07-27T03:13:16.760Z,160.00
2018-07-27T03:14:16.739Z,180.00
2018-07-27T03:15:16.718Z,196.00
2018-07-27T03:16:16.700Z,220.00
2018-07-27T03:17:16.673Z,240.00
2018-07-27T03:18:16.653Z,264.00
2018-07-27T03:19:16.631Z,288.00
2018-07-27T03:20:16.611Z,316.00
2018-07-27T03:21:16.591Z,344.00
2018-07-27T03:22:17.175Z,376.00
2018-07-27T03:23:16.759Z,408.00
2018-07-27T03:24:16.729Z,444.00
2018-07-27T03:25:16.503Z,476.00
2018-07-27T03:26:16.684Z,516.00
2018-07-27T03:27:16.669Z,556.00
2018-07-27T03:28:16.439Z,596.00
2018-07-27T03:29:16.622Z,640.00
2018-07-27T03:30:16.399Z,684.00
2018-07-27T03:31:16.375Z,736.00
2018-07-27T03:32:16.761Z,784.00
2018-07-27T03:33:16.535Z,836.00
2018-07-27T03:34:16.313Z,888.00
2018-07-27T03:35:16.493Z,940.00
2018-07-27T03:36:16.674Z,1000.00
2018-07-27T03:37:16.451Z,1056.00
2018-07-27T03:38:16.483Z,1120.00
2018-07-27T03:39:16.405Z,1184.00
2018-07-27T03:40:16.389Z,1248.00
2018-07-27T03:41:16.366Z,1312.00
2018-07-27T03:42:58.494Z,1428.00
2018-07-27T03:43:58.481Z,1500.00
2018-07-27T03:45:40.604Z,1624.00
2018-07-27T03:48:05.498Z,1808.00
2018-07-27T03:49:05.070Z,1880.00
2018-07-27T03:50:04.845Z,1964.00
2018-07-27T03:51:04.825Z,2040.00
2018-07-27T03:52:04.807Z,2120.00
2018-07-27T03:53:04.779Z,2200.00
2018-07-27T03:54:04.557Z,2284.00
2018-07-27T03:55:04.533Z,2364.00
2018-07-27T03:56:04.512Z,2452.00
2018-07-27T03:57:04.489Z,2532.00
2018-07-27T03:58:04.468Z,2632.00
2018-07-27T03:59:04.653Z,2788.00
2018-07-27T04:00:04.679Z,2964.00
2018-07-27T04:01:04.405Z,3088.00
2018-07-27T04:02:04.383Z,3196.00
2018-07-27T04:03:04.361Z,3300.00
2018-07-27T04:04:04.340Z,3400.00
2018-07-27T04:05:04.319Z,3492.00
2018-07-27T04:06:04.295Z,3612.00
2018-07-27T04:07:04.274Z,3712.00
2018-07-27T04:08:04.251Z,3816.00
2018-07-27T04:09:04.230Z,3916.00
2018-07-27T04:10:04.212Z,4020.00
2018-07-27T04:11:04.193Z,4136.00
2018-07-27T04:12:04.170Z,4264.00
2018-07-27T04:13:04.148Z,4388.00
2018-07-27T04:14:04.135Z,4516.00
2018-07-27T04:15:04.188Z,4656.00
2018-07-27T04:16:04.084Z,4780.00
2018-07-27T04:17:04.062Z,4892.00
2018-07-27T04:18:04.043Z,5012.00
2018-07-27T04:19:04.020Z,5140.00
2018-07-27T04:20:04.002Z,5304.00
2018-07-27T04:21:03.978Z,5428.00
2018-07-27T04:22:03.959Z,5532.00
2018-07-27T04:23:04.091Z,5696.00
2018-07-27T04:24:03.927Z,5852.00
2018-07-27T04:25:03.898Z,6000.00
2018-07-27T04:26:03.878Z,6144.00
2018-07-27T04:27:03.855Z,6308.00
2018-07-27T04:28:03.836Z,6484.00
2018-07-27T04:29:03.817Z,6692.00
2018-07-27T04:30:03.799Z,6896.00
2018-07-27T04:31:03.776Z,7132.00
2018-07-27T04:32:03.755Z,7372.00
2018-07-27T04:33:03.735Z,7588.00
2018-07-27T04:34:03.716Z,7744.00
2018-07-27T04:35:03.695Z,7920.00
2018-07-27T04:36:03.677Z,8064.00
2018-07-27T04:37:03.656Z,8316.00
2018-07-27T04:38:03.637Z,8532.00
2018-07-27T04:39:03.615Z,8644.00
2018-07-27T04:40:03.594Z,8788.00
2018-07-27T04:41:03.573Z,9020.00
2018-07-27T04:42:03.555Z,9204.00
2018-07-27T04:43:03.838Z,9368.00
2018-07-27T04:44:03.518Z,9604.00
2018-07-27T04:45:03.497Z,9812.00
2018-07-27T04:46:03.477Z,9916.00
2018-07-27T04:47:03.661Z,10020.00
2018-07-27T04:48:03.436Z,10408.00
2018-07-27T04:49:03.417Z,10768.00
2018-07-27T04:50:03.398Z,11004.00
2018-07-27T04:51:03.583Z,11100.00
2018-07-27T04:52:03.563Z,11244.00
2018-07-27T04:53:03.346Z,11408.00
2018-07-27T04:54:03.528Z,11716.00
2018-07-27T04:55:03.503Z,12076.00
2018-07-27T04:56:03.283Z,12336.00
2018-07-27T04:57:03.262Z,12460.00
2018-07-27T04:58:03.247Z,12672.00
2018-07-27T04:59:03.228Z,13128.00
2018-07-27T05:00:03.211Z,13444.00
2018-07-27T05:01:03.188Z,13524.00
2018-07-27T05:02:03.171Z,13596.00
2018-07-27T05:03:03.351Z,14000.00
2018-07-27T05:04:03.180Z,14424.00
2018-07-27T05:05:03.316Z,14848.00
2018-07-27T05:06:03.294Z,15104.00
2018-07-27T05:07:03.074Z,15264.00
2018-07-27T05:08:03.057Z,15296.00
2018-07-27T05:09:03.238Z,15328.00
2018-07-27T05:10:03.019Z,15552.00
2018-07-27T05:11:45.374Z,16352.00
2018-07-27T05:12:45.138Z,16128.00
2018-07-27T05:13:45.325Z,16256.00
2018-07-27T05:14:45.103Z,16544.00
2018-07-27T05:15:45.286Z,17152.00
2018-07-27T05:16:45.066Z,17312.00
2018-07-27T05:17:45.249Z,17312.00
2018-07-27T05:18:45.234Z,17472.00
2018-07-27T05:19:45.211Z,17792.00
2018-07-27T05:20:45.191Z,18016.00
2018-07-27T05:21:45.173Z,18208.00
2018-07-27T05:22:45.157Z,18400.00
2018-07-27T05:23:44.936Z,18432.00
2018-07-27T05:24:45.125Z,19328.00
2018-07-27T05:25:46.114Z,19744.00
2018-07-27T05:26:45.085Z,20288.00
2018-07-27T05:28:27.220Z,21504.00
2018-07-27T05:29:27.208Z,21920.00
2018-07-27T05:30:26.982Z,22368.00
2018-07-27T05:31:27.169Z,23552.00
2018-07-27T05:32:26.948Z,23296.00
2018-07-27T05:33:26.934Z,23424.00
2018-07-27T05:34:26.965Z,22880.00
2018-07-27T05:35:29.718Z,22784.00
2018-07-27T05:36:27.087Z,23712.00
2018-07-27T05:37:26.857Z,24160.00
2018-07-27T05:38:26.840Z,24416.00
2018-07-27T05:39:27.028Z,24512.00
2018-07-27T05:40:26.807Z,24704.00
2018-07-27T05:41:29.620Z,24736.00
2018-07-27T05:42:26.772Z,25504.00
2018-07-27T05:43:26.754Z,26400.00
2018-07-27T05:44:26.942Z,26208.00
2018-07-27T05:45:26.719Z,25888.00
2018-07-27T05:46:26.702Z,26112.00
2018-07-27T05:47:26.687Z,25952.00
2018-07-27T05:48:26.666Z,27040.00
2018-07-27T05:49:26.853Z,27840.00
2018-07-27T05:50:26.842Z,28000.00
2018-07-27T05:51:26.617Z,27616.00
2018-07-27T05:52:26.601Z,27488.00
2018-07-27T05:53:26.583Z,27456.00
2018-07-27T05:54:26.565Z,27328.00
2018-07-27T05:55:26.548Z,27840.00
2018-07-27T05:56:26.531Z,27904.00
2018-07-27T05:57:26.514Z,27968.00
2018-07-27T05:58:26.498Z,27808.00
2018-07-27T05:59:26.501Z,27456.00
2018-07-27T06:00:26.468Z,27936.00
2018-07-27T06:01:26.650Z,28576.00
2018-07-27T06:02:26.432Z,28416.00
2018-07-27T06:03:26.418Z,28800.00
2018-07-27T06:04:26.401Z,29024.00
2018-07-27T06:05:26.383Z,29248.00
2018-07-27T06:06:26.368Z,29728.00
2018-07-27T06:07:26.359Z,30368.00
2018-07-27T06:08:26.337Z,30368.00
2018-07-27T06:09:26.318Z,31328.00
2018-07-27T06:11:08.680Z,32128.00
2018-07-27T06:12:08.444Z,32064.00
2018-07-27T06:13:08.426Z,31968.00
2018-07-27T06:14:08.615Z,32448.00
2018-07-27T06:15:08.397Z,34176.00
2018-07-27T06:16:08.381Z,36256.00
2018-07-27T06:17:08.368Z,35040.00
2018-07-27T06:18:08.640Z,33952.00
2018-07-27T06:19:08.534Z,33440.00
2018-07-27T06:20:08.318Z,34976.00
2018-07-27T06:21:08.512Z,36864.00
2018-07-27T06:22:08.501Z,36064.00
2018-07-27T06:23:08.477Z,34784.00
2018-07-27T06:24:08.582Z,34656.00
2018-07-27T06:25:08.442Z,35232.00
2018-07-27T06:26:08.427Z,35328.00
2018-07-27T06:27:08.411Z,33632.00
2018-07-27T06:28:08.217Z,33440.00
2018-07-27T06:29:08.447Z,32448.00
2018-07-27T06:30:08.161Z,33536.00
2018-07-27T06:31:08.348Z,32416.00
2018-07-27T06:33:32.648Z,32480.00
2018-07-27T06:34:32.431Z,33856.00
2018-07-27T06:35:32.617Z,33280.00
2018-07-27T06:36:32.408Z,30816.00
2018-07-27T06:37:32.387Z,28896.00
2018-07-27T06:38:32.574Z,26976.00
2018-07-27T06:39:32.358Z,25696.00
2018-07-27T06:40:32.340Z,24480.00
2018-07-27T06:41:32.327Z,23968.00
2018-07-27T06:42:32.520Z,23616.00
2018-07-27T06:43:32.295Z,23136.00
2018-07-27T06:56:29.181Z,49888.00
2018-07-27T06:57:29.175Z,50432.00
2018-07-27T06:58:28.947Z,50560.00
2018-07-27T06:59:28.934Z,52000.00
2018-07-27T07:00:28.920Z,54112.00
2018-07-27T07:01:28.902Z,55008.00
2018-07-27T07:02:29.195Z,55552.00
2018-07-27T07:03:28.891Z,56704.00
2018-07-27T07:04:28.858Z,56704.00
2018-07-27T07:05:29.046Z,56032.00
2018-07-27T07:06:29.031Z,58656.00
2018-07-27T07:07:29.019Z,58528.00
2018-07-27T07:08:29.005Z,59072.00
2018-07-27T07:09:28.990Z,60896.00
2018-07-27T07:10:28.978Z,57984.00
2018-07-27T07:11:28.965Z,59328.00
2018-07-27T07:12:28.952Z,59424.00
2018-07-27T07:13:28.935Z,59584.00
2018-07-27T07:14:28.935Z,59936.00
2018-07-27T07:15:28.707Z,61216.00
2018-07-27T07:16:32.322Z,59232.00
2018-07-27T07:17:28.880Z,59904.00
2018-07-27T07:18:28.663Z,59584.00
2018-07-27T07:19:28.649Z,59968.00
2018-07-27T07:23:59.637Z,61952.00
2018-07-27T07:24:59.623Z,61632.00
2018-07-27T07:25:59.940Z,60640.00
2018-07-27T07:26:59.397Z,60416.00
2018-07-27T07:27:59.584Z,60928.00
2018-07-27T07:31:08.677Z,63552.00
2018-07-27T07:32:06.037Z,64448.00
2018-07-27T07:33:06.032Z,64160.00
2018-07-27T07:35:21.587Z,66720.00
2018-07-27T07:36:18.949Z,65728.00
2018-07-27T07:37:18.936Z,67520.00
2018-07-27T07:38:18.927Z,67456.00
2018-07-27T07:39:18.913Z,65184.00
2018-07-27T07:40:18.899Z,65824.00
2018-07-27T07:41:18.893Z,68480.00
2018-07-27T07:42:18.877Z,68928.00
2018-07-27T07:43:18.861Z,68896.00
2018-07-27T07:44:18.848Z,70208.00
2018-07-27T07:45:18.836Z,68192.00
2018-07-27T07:46:18.624Z,66400.00
2018-07-27T07:47:18.816Z,68064.00
2018-07-27T07:48:18.597Z,68544.00
2018-07-27T07:49:18.623Z,67648.00
2018-07-27T07:50:18.776Z,71008.00
2018-07-27T07:51:18.766Z,68576.00
2018-07-27T07:52:18.551Z,68768.00
2018-07-27T07:53:18.539Z,69312.00
2018-07-27T07:54:18.526Z,70304.00
2018-07-27T07:55:18.521Z,73728.00
2018-07-27T07:56:18.500Z,71648.00
2018-07-27T07:57:18.698Z,71424.00
2018-07-27T07:58:18.680Z,71712.00
2018-07-27T07:59:18.475Z,74240.00
2018-07-27T08:00:18.455Z,74784.00
2018-07-27T08:01:18.449Z,65824.00
2018-07-27T08:02:18.631Z,65952.00
2018-07-27T08:03:18.620Z,71136.00
2018-07-27T08:04:21.252Z,70048.00
2018-07-27T08:05:18.596Z,69728.00
2018-07-27T08:06:18.589Z,71264.00
2018-07-27T08:07:18.575Z,69152.00
2018-07-27T08:08:18.566Z,67872.00
2018-07-27T08:09:18.552Z,67712.00
2018-07-27T08:10:18.541Z,70656.00
2018-07-27T08:11:18.538Z,73472.00
2018-07-27T08:15:49.323Z,74944.00
2018-07-27T08:16:49.312Z,74528.00
2018-07-27T08:17:49.099Z,74944.00
2018-07-27T08:18:49.292Z,78624.00
2018-07-27T08:19:49.283Z,80352.00
2018-07-27T08:20:49.268Z,76960.00
2018-07-27T08:21:49.261Z,75776.00
2018-07-27T08:22:49.245Z,75488.00
2018-07-27T08:23:49.242Z,75360.00
2018-07-27T08:24:49.238Z,76192.00
2018-07-27T08:25:49.655Z,79008.00
2018-07-27T08:26:49.204Z,81472.00
2018-07-27T08:27:49.193Z,80992.00
2018-07-27T08:29:32.151Z,82272.00
2018-07-27T08:31:13.498Z,83040.00
2018-07-27T08:32:16.104Z,80768.00
2018-07-27T08:33:13.269Z,82016.00
2018-07-27T08:34:13.263Z,84928.00
2018-07-27T08:35:13.250Z,85024.00
2018-07-27T08:36:13.445Z,81376.00
2018-07-27T08:37:13.432Z,80992.00
2018-07-27T08:38:13.220Z,84832.00
2018-07-27T08:39:13.409Z,86368.00
2018-07-27T08:40:13.196Z,90624.00
2018-07-27T08:41:13.190Z,87392.00
2018-07-27T08:42:13.383Z,84704.00
2018-07-27T08:43:13.172Z,89344.00
2018-07-27T08:44:13.160Z,89696.00
2018-07-27T08:45:13.147Z,88480.00
2018-07-27T08:47:13.341Z,92928.00
2018-07-27T08:48:13.318Z,95232.00
2018-07-27T08:49:13.311Z,93312.00
2018-07-27T08:56:50.587Z,98304.00
2018-07-27T08:59:32.727Z,95168.00
2018-07-27T09:02:14.867Z,96960.00
2018-07-27T09:03:14.665Z,97920.00
2018-07-27T09:04:14.853Z,97504.00
2018-07-27T09:05:57.000Z,96832.00
2018-07-27T09:06:56.987Z,97280.00
2018-07-27T09:07:57.127Z,97632.00
2018-07-27T09:08:56.969Z,98016.00
2018-07-27T09:09:56.762Z,99776.00
2018-07-27T09:10:56.955Z,101248.00
2018-07-27T09:11:56.747Z,101696.00
2018-07-27T09:12:56.721Z,99584.00
2018-07-27T09:13:56.718Z,100160.00
2018-07-27T09:14:56.699Z,104480.00
2018-07-27T09:15:56.693Z,103744.00
2018-07-27T09:16:56.681Z,102080.00
2018-07-27T09:17:56.670Z,99296.00
2018-07-27T09:18:56.659Z,98528.00
2018-07-27T09:19:56.681Z,104448.00
2018-07-27T09:20:56.639Z,105504.00
2018-07-27T09:21:56.630Z,102048.00
2018-07-27T09:22:56.621Z,102400.00
2018-07-27T09:23:56.609Z,104992.00
2018-07-27T09:24:56.932Z,104608.00
2018-07-27T09:25:56.585Z,103520.00
2018-07-27T09:26:56.576Z,104608.00
2018-07-27T09:27:56.570Z,104512.00
2018-07-27T09:28:56.559Z,105984.00
2018-07-27T09:29:56.550Z,104992.00
2018-07-27T09:30:56.541Z,104448.00
2018-07-27T09:31:56.529Z,106144.00
2018-07-27T09:32:56.517Z,105760.00
2018-07-27T09:33:56.510Z,101312.00
2018-07-27T09:34:56.501Z,99936.00
2018-07-27T09:35:56.491Z,98880.00
2018-07-27T09:36:56.525Z,99904.00
2018-07-27T09:37:56.471Z,101248.00
2018-07-27T09:38:56.460Z,98880.00
2018-07-27T09:39:56.451Z,97216.00
2018-07-27T09:40:56.445Z,99296.00
2018-07-27T09:41:56.436Z,100608.00
2018-07-27T09:42:56.426Z,97920.00
2018-07-27T09:43:56.420Z,97152.00
2018-07-27T09:44:56.410Z,98912.00
2018-07-27T09:45:56.399Z,99936.00
2018-07-27T09:46:56.393Z,98048.00
2018-07-27T09:47:56.385Z,97600.00
2018-07-27T09:48:56.377Z,100832.00
2018-07-27T09:49:56.367Z,99488.00
2018-07-27T09:50:56.356Z,97152.00
2018-07-27T09:51:56.349Z,98400.00
2018-07-27T09:52:56.341Z,97504.00
2018-07-27T09:53:56.406Z,97824.00
2018-07-27T09:54:56.324Z,99040.00
2018-07-27T09:55:56.314Z,98368.00
2018-07-27T09:56:56.309Z,95968.00
2018-07-27T09:57:56.371Z,96928.00
2018-07-27T09:58:56.288Z,98720.00
2018-07-27T09:59:56.280Z,98208.00
2018-07-27T10:00:56.275Z,97952.00
2018-07-27T10:01:56.266Z,99424.00
2018-07-27T10:02:56.257Z,98528.00
2018-07-27T10:03:56.251Z,96256.00
2018-07-27T10:04:56.241Z,96192.00
2018-07-27T10:05:56.231Z,100576.00
2018-07-27T10:06:56.223Z,99712.00
2018-07-27T10:07:56.213Z,96032.00
2018-07-27T10:08:56.216Z,97888.00
2018-07-27T10:09:56.198Z,97056.00
2018-07-27T10:10:56.189Z,95040.00
2018-07-27T10:11:56.182Z,95136.00
2018-07-27T10:12:56.232Z,94272.00
2018-07-27T10:13:56.174Z,94976.00
2018-07-27T10:14:56.156Z,96928.00
2018-07-27T10:15:56.151Z,93024.00
2018-07-27T10:16:56.143Z,89792.00
2018-07-27T10:17:56.132Z,93472.00
2018-07-27T10:18:56.123Z,98368.00
2018-07-27T10:19:56.133Z,97600.00
2018-07-27T10:20:56.106Z,95392.00
2018-07-27T10:21:56.112Z,99104.00
2018-07-27T10:22:56.088Z,98720.00
2018-07-27T10:23:56.080Z,98272.00
2018-07-27T10:24:56.075Z,102784.00
2018-07-27T10:25:56.073Z,101376.00
2018-07-27T10:26:56.053Z,94912.00
2018-07-27T10:27:56.046Z,94528.00
2018-07-27T10:28:56.040Z,99936.00
2018-07-27T10:29:56.032Z,100576.00
2018-07-27T10:30:56.022Z,97056.00
2018-07-27T10:31:56.019Z,96576.00
2018-07-27T10:32:56.004Z,97856.00
2018-07-27T10:33:55.995Z,97216.00
2018-07-27T10:34:55.988Z,97664.00
2018-07-27T10:35:55.984Z,101184.00
2018-07-27T10:36:55.971Z,101376.00
2018-07-27T10:37:55.964Z,98016.00
2018-07-27T10:38:55.958Z,99296.00
2018-07-27T10:39:55.946Z,99456.00
2018-07-27T10:40:55.944Z,98368.00
2018-07-27T10:41:55.929Z,101056.00
2018-07-27T10:42:55.929Z,101184.00
2018-07-27T10:43:55.914Z,100416.00
2018-07-27T10:44:55.941Z,100480.00
2018-07-27T10:45:55.896Z,100512.00
2018-07-27T10:46:55.891Z,101024.00
2018-07-27T10:47:55.881Z,101120.00
2018-07-27T10:48:57.290Z,103040.00
2018-07-27T10:49:56.081Z,104160.00
2018-07-27T10:50:55.858Z,101984.00
2018-07-27T10:51:55.851Z,101728.00
2018-07-27T10:52:55.843Z,103744.00
2018-07-27T10:55:20.371Z,102336.00
2018-07-27T10:56:20.388Z,104160.00
2018-07-27T10:57:20.149Z,102688.00
2018-07-27T10:58:20.143Z,102944.00
2018-07-27T10:59:20.135Z,106304.00
2018-07-27T11:00:20.126Z,106464.00
2018-07-27T11:01:20.120Z,101056.00
2018-07-27T11:02:20.367Z,100064.00
2018-07-27T11:03:20.107Z,104000.00
2018-07-27T11:04:20.098Z,104544.00
2018-07-27T11:05:20.086Z,104640.00
2018-07-27T11:06:20.082Z,104256.00
2018-07-27T11:07:20.073Z,102944.00
2018-07-27T11:08:20.068Z,101184.00
2018-07-27T11:09:20.058Z,100160.00
2018-07-27T11:10:20.052Z,102016.00
2018-07-27T11:11:20.052Z,101504.00
2018-07-27T11:12:20.037Z,99776.00
2018-07-27T11:13:20.027Z,99456.00
2018-07-27T11:14:20.019Z,100000.00
2018-07-27T11:15:20.021Z,104544.00
2018-07-27T11:16:20.055Z,104736.00
2018-07-27T11:17:20.069Z,97920.00
2018-07-27T11:18:19.991Z,98080.00
2018-07-27T11:19:19.985Z,101920.00
2018-07-27T11:20:19.979Z,101632.00
2018-07-27T11:21:19.970Z,103200.00
2018-07-27T11:22:19.960Z,103168.00
2018-07-27T11:23:19.953Z,102336.00
2018-07-27T11:24:19.950Z,103872.00
2018-07-27T11:25:19.939Z,104352.00
2018-07-27T11:26:19.931Z,100928.00
2018-07-27T11:27:19.926Z,100608.00
2018-07-27T11:28:19.917Z,101088.00
2018-07-27T11:29:19.912Z,104928.00
2018-07-27T11:30:19.908Z,108320.00
2018-07-27T11:31:19.905Z,104864.00
2018-07-27T11:32:19.890Z,99744.00
2018-07-27T11:33:20.091Z,104064.00
2018-07-27T11:34:20.078Z,108448.00
2018-07-27T11:35:19.869Z,106496.00
2018-07-27T11:36:19.867Z,103552.00
2018-07-27T11:37:19.908Z,100896.00
2018-07-27T11:38:19.850Z,101952.00
2018-07-27T11:39:19.844Z,104800.00
2018-07-27T11:40:20.039Z,104832.00
2018-07-27T11:41:19.830Z,104128.00
2018-07-27T11:42:20.089Z,104544.00
2018-07-27T11:43:19.818Z,102752.00
2018-07-27T11:44:19.811Z,102080.00
2018-07-27T11:45:19.807Z,105056.00
2018-07-27T11:46:19.998Z,104544.00
2018-07-27T11:47:19.789Z,103584.00
2018-07-27T11:48:19.782Z,103200.00
2018-07-27T11:49:19.829Z,103360.00
2018-07-27T11:50:19.771Z,103680.00
2018-07-27T11:51:19.768Z,102592.00
2018-07-27T11:52:19.962Z,102208.00
2018-07-27T11:53:19.756Z,103232.00
2018-07-27T11:54:19.744Z,104128.00
2018-07-27T11:55:19.946Z,107360.00
2018-07-27T11:56:19.733Z,105856.00
2018-07-27T11:57:19.728Z,102688.00
2018-07-27T11:58:19.720Z,107168.00
2018-07-27T11:59:19.713Z,108192.00
2018-07-27T12:00:19.719Z,103232.00
2018-07-27T12:01:19.701Z,99776.00
2018-07-27T12:02:19.693Z,90720.00
2018-07-27T12:03:19.686Z,83968.00
2018-07-27T12:04:19.679Z,86624.00
2018-07-27T12:05:19.674Z,92352.00
2018-07-27T12:06:19.668Z,98720.00
2018-07-27T12:07:19.661Z,104064.00
2018-07-27T12:08:19.655Z,106240.00
2018-07-27T12:09:19.648Z,105728.00
2018-07-27T12:10:19.639Z,103936.00
2018-07-27T12:11:19.635Z,102336.00
2018-07-27T12:12:19.632Z,101760.00
2018-07-27T12:13:19.624Z,100224.00
2018-07-27T12:14:19.766Z,95008.00
2018-07-27T12:15:19.872Z,97408.00
2018-07-27T12:16:19.605Z,103200.00
2018-07-27T12:17:19.605Z,103072.00
2018-07-27T12:18:19.589Z,98784.00
2018-07-27T12:19:19.582Z,99232.00
2018-07-27T12:20:19.575Z,102816.00
2018-07-27T12:21:19.682Z,105632.00
2018-07-27T12:22:19.560Z,103104.00
2018-07-27T12:23:19.554Z,102752.00
2018-07-27T12:24:19.546Z,104288.00
2018-07-27T12:25:19.746Z,102528.00
2018-07-27T12:26:19.736Z,101792.00
2018-07-27T12:27:19.732Z,101696.00
2018-07-27T12:28:22.346Z,101664.00
2018-07-27T12:29:19.720Z,105568.00
2018-07-27T12:30:19.714Z,108192.00
2018-07-27T12:31:19.503Z,104224.00
2018-07-27T12:32:19.496Z,97280.00
2018-07-27T12:33:19.492Z,95040.00
2018-07-27T12:34:19.484Z,99648.00
2018-07-27T12:35:19.477Z,103680.00
2018-07-27T12:36:19.720Z,108704.00
2018-07-27T12:37:19.466Z,110048.00
2018-07-27T12:38:19.460Z,107200.00
2018-07-27T12:39:19.453Z,109280.00
2018-07-27T12:40:19.449Z,110016.00
2018-07-27T12:41:19.441Z,36448.00
2018-07-27T12:42:19.432Z,85504.00
2018-07-27T12:43:19.435Z,36672.00
2018-07-27T12:44:19.419Z,94784.00
2018-07-27T12:45:19.416Z,92768.00
2018-07-27T12:46:19.415Z,99520.00
2018-07-27T12:47:19.415Z,107456.00
2018-07-27T12:48:19.390Z,101760.00